Time;durP1;ratioP1;P1;durP2;ratioP2;P2;SDS_P1;SDS_P2;PMS_P1;PMS_P2;Temp;Humidity;BMP_temperature;BMP_pressure;BME280_temperature;BME280_humidity;BME280_pressure;Samples;Min_cycle;Max_cycle;Signal;HPM_P1;HPM_P2
2021/12/22 00:00:20;;;;;;;29.17;14.63;;;;;;;;;;5015994;28;20072;-88
2021/12/22 00:02:46;;;;;;;31.33;16.45;;;;;;;;;;5033286;28;20470;-88
2021/12/22 00:05:23;;;;;;;23.50;15.20;;;;;;;;;;5032491;28;20034;-87
2021/12/22 00:07:49;;;;;;;26.95;14.32;;;;;;;;;;5032494;28;20049;-88
2021/12/22 00:10:14;;;;;;;26.20;14.52;;;;;;;;;;5014746;28;20095;-87
2021/12/22 00:12:40;;;;;;;24.00;14.48;;;;;;;;;;5032300;28;20025;-87
2021/12/22 00:15:05;;;;;;;23.45;14.68;;;;;;;;;;5032710;28;20100;-87
2021/12/22 00:17:30;;;;;;;31.75;15.43;;;;;;;;;;5014464;28;20842;-87
2021/12/22 00:19:56;;;;;;;23.75;14.35;;;;;;;;;;5031973;28;20037;-87
2021/12/22 00:22:21;;;;;;;23.67;14.32;;;;;;;;;;5014242;28;20034;-87
2021/12/22 00:24:47;;;;;;;19.93;12.73;;;;;;;;;;5014100;28;20028;-87
2021/12/22 00:27:12;;;;;;;26.98;14.10;;;;;;;;;;5032071;28;20724;-87
2021/12/22 00:29:37;;;;;;;23.55;12.88;;;;;;;;;;5014366;28;20036;-87
2021/12/22 00:32:12;;;;;;;25.45;13.00;;;;;;;;;;5014622;28;20025;-88
2021/12/22 00:34:46;;;;;;;23.77;13.52;;;;;;;;;;5032033;28;20017;-87
2021/12/22 00:37:11;;;;;;;24.33;13.05;;;;;;;;;;5014753;28;20026;-87
2021/12/22 00:39:36;;;;;;;24.10;13.27;;;;;;;;;;5031996;28;20359;-87
2021/12/22 00:42:02;;;;;;;25.33;13.52;;;;;;;;;;5032552;28;20048;-87
2021/12/22 00:44:27;;;;;;;19.35;11.50;;;;;;;;;;5032102;28;20124;-87
2021/12/22 00:46:52;;;;;;;23.33;12.57;;;;;;;;;;5031773;28;20499;-87
2021/12/22 00:49:17;;;;;;;21.20;12.30;;;;;;;;;;5032687;28;20026;-87
2021/12/22 00:51:42;;;;;;;21.90;12.75;;;;;;;;;;5014633;28;20264;-87
2021/12/22 00:54:07;;;;;;;21.08;11.43;;;;;;;;;;5015261;28;20377;-87
2021/12/22 00:56:36;;;;;;;25.13;12.77;;;;;;;;;;5032133;28;20060;-87
2021/12/22 00:59:01;;;;;;;20.55;11.90;;;;;;;;;;5014281;28;20268;-88
2021/12/22 01:01:27;;;;;;;24.50;12.67;;;;;;;;;;5031658;28;20071;-88
2021/12/22 01:03:52;;;;;;;21.30;10.90;;;;;;;;;;5014130;28;20252;-87
2021/12/22 01:06:17;;;;;;;24.40;12.20;;;;;;;;;;5014498;28;20267;-87
2021/12/22 01:08:42;;;;;;;22.10;10.93;;;;;;;;;;5032757;28;20259;-87
2021/12/22 01:11:08;;;;;;;22.25;10.65;;;;;;;;;;5032968;28;20083;-87
2021/12/22 01:13:33;;;;;;;21.77;11.02;;;;;;;;;;5014745;28;20029;-87
2021/12/22 01:15:59;;;;;;;21.00;11.65;;;;;;;;;;5032251;28;20394;-87
2021/12/22 01:18:32;;;;;;;19.80;11.18;;;;;;;;;;5032345;28;20062;-87
2021/12/22 01:23:23;;;;;;;17.05;10.02;;;;;;;;;;5032108;28;20075;-88
2021/12/22 01:25:49;;;;;;;19.65;10.38;;;;;;;;;;5014605;28;20152;-87
2021/12/22 01:28:16;;;;;;;16.58;11.20;;;;;;;;;;5032041;28;20109;-87
2021/12/22 01:30:45;;;;;;;21.45;10.82;;;;;;;;;;5031986;28;20036;-87
2021/12/22 01:33:11;;;;;;;18.02;11.00;;;;;;;;;;5032065;28;20023;-87
2021/12/22 01:35:37;;;;;;;19.60;10.25;;;;;;;;;;5014227;28;20013;-87
2021/12/22 01:38:03;;;;;;;17.50;9.88;;;;;;;;;;5031885;28;20025;-87
2021/12/22 01:40:29;;;;;;;16.17;9.32;;;;;;;;;;5031945;28;20020;-87
2021/12/22 01:42:55;;;;;;;15.60;10.38;;;;;;;;;;5031939;28;20059;-87
2021/12/22 01:45:30;;;;;;;12.60;9.18;;;;;;;;;;5031545;28;20029;-87
2021/12/22 01:50:40;;;;;;;15.63;9.70;;;;;;;;;;5032073;28;20045;-87
2021/12/22 01:53:06;;;;;;;14.57;10.05;;;;;;;;;;5031582;28;20025;-88
2021/12/22 01:55:35;;;;;;;16.38;9.45;;;;;;;;;;5031789;28;20540;-87
2021/12/22 01:58:01;;;;;;;14.00;8.75;;;;;;;;;;5031665;28;20048;-87
2021/12/22 02:00:27;;;;;;;15.20;10.60;;;;;;;;;;5014216;28;20095;-87
2021/12/22 02:02:52;;;;;;;14.35;9.55;;;;;;;;;;5013717;28;20017;-87
2021/12/22 02:05:17;;;;;;;15.30;9.05;;;;;;;;;;5031498;28;20045;-86
2021/12/22 02:07:43;;;;;;;16.98;9.70;;;;;;;;;;5031432;28;20048;-87
2021/12/22 02:10:35;;;;;;;15.60;10.10;;;;;;;;;;5013634;28;20125;-88
2021/12/22 02:13:01;;;;;;;13.40;10.07;;;;;;;;;;5014132;28;20025;-87
2021/12/22 02:15:29;;;;;;;19.30;10.52;;;;;;;;;;5031206;28;20111;-87
2021/12/22 02:17:57;;;;;;;18.23;11.15;;;;;;;;;;5013364;28;20099;-87
2021/12/22 02:20:22;;;;;;;25.10;11.23;;;;;;;;;;5031145;28;20072;-87
2021/12/22 02:22:47;;;;;;;16.30;10.82;;;;;;;;;;5030744;28;20037;-87
2021/12/22 02:25:18;;;;;;;17.00;11.02;;;;;;;;;;5031243;28;20024;-88
2021/12/22 02:27:50;;;;;;;20.50;10.30;;;;;;;;;;5013866;28;20053;-87
2021/12/22 02:30:22;;;;;;;16.17;11.15;;;;;;;;;;5031109;28;20064;-87
2021/12/22 02:35:27;;;;;;;18.55;12.25;;;;;;;;;;5031567;28;20037;-87
2021/12/22 02:37:52;;;;;;;20.38;11.27;;;;;;;;;;5031170;28;20149;-87
2021/12/22 02:40:24;;;;;;;17.13;11.80;;;;;;;;;;5013616;28;20049;-87
2021/12/22 02:42:53;;;;;;;18.23;10.73;;;;;;;;;;5030936;28;20033;-87
2021/12/22 02:45:19;;;;;;;20.05;12.20;;;;;;;;;;5013384;28;20025;-88
2021/12/22 02:47:45;;;;;;;22.15;12.70;;;;;;;;;;5013419;28;20037;-88
2021/12/22 02:50:11;;;;;;;17.95;11.43;;;;;;;;;;5031320;28;20041;-87
2021/12/22 02:53:05;;;;;;;19.05;11.60;;;;;;;;;;5031185;28;20022;-88
2021/12/22 02:55:29;;;;;;;20.98;11.95;;;;;;;;;;5030796;28;20080;-88
2021/12/22 02:57:58;;;;;;;20.88;12.07;;;;;;;;;;5013564;28;20433;-88
2021/12/22 03:00:35;;;;;;;18.23;12.60;;;;;;;;;;5013876;28;20018;-88
2021/12/22 03:03:17;;;;;;;21.05;12.75;;;;;;;;;;5013867;28;20055;-88
2021/12/22 03:05:42;;;;;;;17.88;11.73;;;;;;;;;;5031968;28;20065;-87
2021/12/22 03:08:07;;;;;;;17.05;11.98;;;;;;;;;;5031076;28;20079;-88
2021/12/22 03:10:33;;;;;;;20.80;12.45;;;;;;;;;;5031068;28;20029;-87
2021/12/22 03:13:03;;;;;;;21.63;12.85;;;;;;;;;;5013153;28;20473;-87
2021/12/22 03:15:28;;;;;;;19.20;11.38;;;;;;;;;;5031406;28;20713;-87
2021/12/22 03:17:53;;;;;;;20.10;11.73;;;;;;;;;;5012816;28;20025;-87
2021/12/22 03:20:19;;;;;;;16.50;11.25;;;;;;;;;;5032799;28;20084;-87
2021/12/22 03:22:46;;;;;;;25.08;12.88;;;;;;;;;;5034524;28;20032;-87
2021/12/22 03:25:16;;;;;;;16.92;11.77;;;;;;;;;;5034197;28;20097;-87
2021/12/22 03:27:49;;;;;;;17.73;11.25;;;;;;;;;;5016550;28;20021;-88
2021/12/22 03:30:16;;;;;;;18.52;12.35;;;;;;;;;;5034814;28;20049;-87
2021/12/22 03:32:41;;;;;;;13.60;10.57;;;;;;;;;;5016355;28;20021;-87
2021/12/22 03:35:07;;;;;;;15.30;11.05;;;;;;;;;;5034096;28;20028;-87
2021/12/22 03:37:32;;;;;;;18.85;10.13;;;;;;;;;;5016769;28;20018;-87
2021/12/22 03:39:58;;;;;;;19.88;11.27;;;;;;;;;;5016406;28;20381;-87
2021/12/22 03:42:23;;;;;;;16.75;10.77;;;;;;;;;;5034579;28;20025;-88
2021/12/22 03:44:48;;;;;;;17.30;10.80;;;;;;;;;;5016010;28;20234;-87
2021/12/22 03:47:14;;;;;;;21.10;11.48;;;;;;;;;;5024819;28;20026;-88
2021/12/22 03:49:39;;;;;;;21.08;11.68;;;;;;;;;;5034642;28;20029;-88
2021/12/22 03:52:05;;;;;;;22.83;11.98;;;;;;;;;;5034066;28;20454;-87
2021/12/22 03:54:30;;;;;;;22.00;10.77;;;;;;;;;;5034256;28;20500;-88
2021/12/22 03:56:55;;;;;;;17.75;11.88;;;;;;;;;;5035007;28;20481;-86
2021/12/22 03:59:21;;;;;;;21.90;12.52;;;;;;;;;;5016588;28;20059;-88
2021/12/22 04:01:47;;;;;;;18.98;11.55;;;;;;;;;;5033080;28;20053;-88
2021/12/22 04:04:15;;;;;;;17.77;12.00;;;;;;;;;;5034294;28;20052;-88
2021/12/22 04:06:43;;;;;;;22.23;13.35;;;;;;;;;;5034648;28;20105;-88
2021/12/22 04:09:08;;;;;;;16.90;10.50;;;;;;;;;;5016399;28;20027;-88
2021/12/22 04:11:34;;;;;;;19.58;13.25;;;;;;;;;;5016579;28;20112;-88
2021/12/22 04:13:59;;;;;;;21.15;12.60;;;;;;;;;;5034449;28;20049;-88
2021/12/22 04:16:24;;;;;;;21.02;12.73;;;;;;;;;;5033859;28;20033;-88
2021/12/22 04:18:50;;;;;;;21.00;12.82;;;;;;;;;;5034350;28;20488;-87
2021/12/22 04:21:15;;;;;;;19.48;12.93;;;;;;;;;;5016615;28;20048;-88
2021/12/22 04:23:40;;;;;;;22.43;14.37;;;;;;;;;;5016963;28;20909;-88
2021/12/22 04:26:05;;;;;;;21.48;14.50;;;;;;;;;;5016145;28;20271;-88
2021/12/22 04:28:30;;;;;;;19.33;13.70;;;;;;;;;;5015842;28;20029;-88
2021/12/22 04:30:56;;;;;;;19.30;14.33;;;;;;;;;;5032577;28;20033;-87
2021/12/22 04:33:21;;;;;;;19.35;14.68;;;;;;;;;;5032896;28;20354;-87
2021/12/22 04:35:47;;;;;;;22.45;15.05;;;;;;;;;;5032686;28;20022;-88
2021/12/22 04:38:12;;;;;;;20.08;13.90;;;;;;;;;;5014307;28;20432;-88
2021/12/22 04:40:38;;;;;;;25.95;15.70;;;;;;;;;;5029792;28;20128;-88
2021/12/22 04:43:03;;;;;;;22.92;15.77;;;;;;;;;;5032068;28;20474;-88
2021/12/22 04:45:28;;;;;;;23.95;16.20;;;;;;;;;;5014037;28;20041;-87
2021/12/22 04:47:54;;;;;;;23.00;15.65;;;;;;;;;;5031958;28;20048;-87
2021/12/22 04:50:20;;;;;;;24.88;15.88;;;;;;;;;;5031622;28;20069;-88
2021/12/22 04:53:05;;;;;;;29.08;15.82;;;;;;;;;;5013859;28;20021;-87
2021/12/22 04:55:31;;;;;;;24.80;14.98;;;;;;;;;;5014115;28;20037;-87
2021/12/22 04:57:57;;;;;;;25.50;16.17;;;;;;;;;;5013791;28;20022;-87
2021/12/22 05:00:24;;;;;;;26.75;15.52;;;;;;;;;;5032151;28;20025;-88
2021/12/22 05:02:49;;;;;;;25.13;16.25;;;;;;;;;;5014052;28;20026;-87
2021/12/22 05:05:15;;;;;;;24.05;15.02;;;;;;;;;;5031550;28;20100;-87
2021/12/22 05:07:42;;;;;;;25.27;16.13;;;;;;;;;;5031827;28;20034;-87
2021/12/22 05:10:07;;;;;;;30.30;15.55;;;;;;;;;;5013650;28;20124;-88
2021/12/22 05:12:33;;;;;;;22.75;15.35;;;;;;;;;;5013272;28;20109;-88
2021/12/22 05:14:58;;;;;;;30.17;16.70;;;;;;;;;;5028140;28;20053;-87
2021/12/22 05:17:38;;;;;;;26.10;15.40;;;;;;;;;;5027227;28;20060;-87
2021/12/22 05:20:04;;;;;;;27.92;16.85;;;;;;;;;;5026888;28;20691;-87
2021/12/22 05:22:29;;;;;;;26.23;16.55;;;;;;;;;;5029507;28;20025;-87
2021/12/22 05:24:54;;;;;;;29.53;16.43;;;;;;;;;;5030022;28;20021;-88
2021/12/22 05:27:19;;;;;;;29.30;16.60;;;;;;;;;;5030652;28;20756;-88
2021/12/22 05:29:47;;;;;;;27.02;17.15;;;;;;;;;;5011996;28;20124;-88
2021/12/22 05:32:12;;;;;;;27.80;17.75;;;;;;;;;;5029341;28;20021;-87
2021/12/22 05:34:37;;;;;;;23.80;17.00;;;;;;;;;;5011919;28;20025;-87
2021/12/22 05:37:03;;;;;;;26.57;17.60;;;;;;;;;;5012148;28;20669;-87
2021/12/22 05:39:28;;;;;;;29.85;17.33;;;;;;;;;;5012180;28;20303;-88
2021/12/22 05:41:54;;;;;;;31.33;17.73;;;;;;;;;;5012231;28;20025;-88
2021/12/22 05:44:19;;;;;;;25.02;16.48;;;;;;;;;;5013193;28;20456;-87
2021/12/22 05:46:44;;;;;;;31.77;18.80;;;;;;;;;;5029994;28;20025;-88
2021/12/22 05:49:10;;;;;;;28.40;18.27;;;;;;;;;;5011996;28;20021;-88
2021/12/22 05:51:35;;;;;;;24.60;18.60;;;;;;;;;;5011971;28;21096;-87
2021/12/22 05:54:00;;;;;;;26.35;18.77;;;;;;;;;;5011940;28;20579;-87
2021/12/22 05:56:27;;;;;;;30.08;20.35;;;;;;;;;;5011766;28;20112;-87
2021/12/22 05:58:52;;;;;;;30.85;19.27;;;;;;;;;;5011830;28;20029;-88
2021/12/22 06:01:17;;;;;;;31.92;20.60;;;;;;;;;;5029366;28;20780;-87
2021/12/22 06:03:43;;;;;;;33.20;20.73;;;;;;;;;;5027455;28;20029;-88
2021/12/22 06:06:09;;;;;;;33.63;21.05;;;;;;;;;;5012115;28;20021;-87
2021/12/22 06:08:35;;;;;;;31.70;22.05;;;;;;;;;;5012677;28;20025;-88
2021/12/22 06:11:00;;;;;;;40.55;23.42;;;;;;;;;;5012646;28;20040;-88
2021/12/22 06:13:25;;;;;;;32.92;22.55;;;;;;;;;;5030573;28;20358;-88
2021/12/22 06:15:50;;;;;;;31.43;21.30;;;;;;;;;;5030010;28;20068;-87
2021/12/22 06:18:15;;;;;;;43.93;23.53;;;;;;;;;;5012106;28;20248;-88
2021/12/22 06:20:40;;;;;;;36.93;23.27;;;;;;;;;;5029772;28;20256;-87
2021/12/22 06:23:06;;;;;;;39.53;23.85;;;;;;;;;;5012735;28;20378;-88
2021/12/22 06:25:31;;;;;;;37.70;23.70;;;;;;;;;;5012593;28;20483;-88
2021/12/22 06:27:56;;;;;;;44.53;24.63;;;;;;;;;;5029942;28;20075;-88
2021/12/22 06:30:21;;;;;;;38.25;24.55;;;;;;;;;;5011824;28;20299;-88
2021/12/22 06:32:47;;;;;;;32.78;25.67;;;;;;;;;;5012123;28;20381;-88
2021/12/22 06:35:12;;;;;;;46.33;25.58;;;;;;;;;;5029476;28;20092;-88
2021/12/22 06:37:38;;;;;;;35.65;23.35;;;;;;;;;;5011551;28;20178;-88
2021/12/22 06:40:04;;;;;;;41.78;25.67;;;;;;;;;;5029392;28;20037;-88
2021/12/22 06:42:30;;;;;;;40.58;25.15;;;;;;;;;;5029112;28;20106;-88
2021/12/22 06:44:55;;;;;;;39.28;25.58;;;;;;;;;;5029556;28;20057;-88
2021/12/22 06:47:20;;;;;;;36.60;26.40;;;;;;;;;;5029575;28;20039;-88
2021/12/22 06:49:45;;;;;;;46.95;24.60;;;;;;;;;;5029186;28;20748;-88
2021/12/22 06:52:10;;;;;;;42.05;24.67;;;;;;;;;;5011514;28;20044;-88
2021/12/22 06:54:36;;;;;;;32.90;25.17;;;;;;;;;;5030235;28;20067;-87
2021/12/22 06:57:01;;;;;;;32.70;23.17;;;;;;;;;;5015497;28;20263;-88
2021/12/22 06:59:26;;;;;;;39.65;24.48;;;;;;;;;;5033344;28;20136;-88
2021/12/22 07:01:52;;;;;;;37.75;22.58;;;;;;;;;;5033147;28;20026;-88
2021/12/22 07:04:17;;;;;;;38.83;24.20;;;;;;;;;;5033388;28;20430;-88
2021/12/22 07:06:43;;;;;;;34.85;23.58;;;;;;;;;;5033924;28;20035;-88
2021/12/22 07:09:09;;;;;;;38.10;24.58;;;;;;;;;;5014737;28;20029;-87
2021/12/22 07:11:34;;;;;;;32.90;23.02;;;;;;;;;;5032800;28;20044;-88
2021/12/22 07:14:00;;;;;;;42.53;25.75;;;;;;;;;;5032728;28;20049;-87
2021/12/22 07:16:25;;;;;;;35.88;25.33;;;;;;;;;;5015617;28;20021;-87
2021/12/22 07:18:51;;;;;;;38.25;25.48;;;;;;;;;;5032447;28;20051;-88
2021/12/22 07:21:16;;;;;;;41.40;28.03;;;;;;;;;;5032894;28;20021;-88
2021/12/22 07:23:41;;;;;;;34.08;23.92;;;;;;;;;;5014494;28;20363;-88
2021/12/22 07:26:13;;;;;;;41.45;23.77;;;;;;;;;;5014754;28;20057;-87
2021/12/22 07:28:38;;;;;;;39.03;24.35;;;;;;;;;;5032288;28;20033;-87
2021/12/22 07:31:03;;;;;;;38.23;24.60;;;;;;;;;;5032333;28;20551;-88
2021/12/22 07:33:28;;;;;;;37.28;23.48;;;;;;;;;;5038864;28;20256;-87
2021/12/22 07:35:58;;;;;;;41.47;24.73;;;;;;;;;;5034242;28;20389;-88
2021/12/22 07:38:28;;;;;;;38.53;22.55;;;;;;;;;;5014069;28;20397;-87
2021/12/22 07:40:56;;;;;;;38.15;25.27;;;;;;;;;;5029351;28;20037;-88
2021/12/22 07:43:22;;;;;;;36.85;24.05;;;;;;;;;;5032642;28;20064;-88
2021/12/22 07:45:47;;;;;;;42.92;23.58;;;;;;;;;;5032957;28;20021;-87
2021/12/22 07:48:12;;;;;;;33.90;21.83;;;;;;;;;;5022400;28;20037;-87
2021/12/22 07:50:38;;;;;;;39.55;21.95;;;;;;;;;;5014621;28;20033;-88
2021/12/22 07:53:03;;;;;;;38.33;22.58;;;;;;;;;;5033287;28;20010;-87
2021/12/22 07:55:28;;;;;;;44.17;24.98;;;;;;;;;;5032547;28;20568;-88
2021/12/22 07:57:53;;;;;;;33.83;22.50;;;;;;;;;;5031914;28;20583;-88
2021/12/22 08:00:19;;;;;;;36.70;23.23;;;;;;;;;;5031737;28;20384;-88
2021/12/22 08:02:44;;;;;;;46.20;24.10;;;;;;;;;;5031662;28;20512;-88
2021/12/22 08:05:09;;;;;;;38.00;21.90;;;;;;;;;;5013599;28;20021;-87
2021/12/22 08:07:34;;;;;;;36.17;23.67;;;;;;;;;;5031330;28;20049;-87
2021/12/22 08:10:00;;;;;;;42.33;23.23;;;;;;;;;;5031934;28;20112;-88
2021/12/22 08:12:25;;;;;;;37.60;23.48;;;;;;;;;;5014311;28;20026;-88
2021/12/22 08:14:50;;;;;;;39.67;25.52;;;;;;;;;;5031487;28;20045;-87
2021/12/22 08:17:16;;;;;;;43.15;23.00;;;;;;;;;;5031254;28;20013;-87
2021/12/22 08:19:41;;;;;;;38.97;25.15;;;;;;;;;;5031452;28;20017;-88
2021/12/22 08:22:06;;;;;;;36.55;21.52;;;;;;;;;;5031593;28;20025;-87
2021/12/22 08:24:32;;;;;;;31.98;21.52;;;;;;;;;;5031387;28;20071;-87
2021/12/22 08:26:58;;;;;;;39.22;24.75;;;;;;;;;;5031774;28;20104;-87
2021/12/22 08:29:23;;;;;;;39.95;23.10;;;;;;;;;;5031321;28;20172;-87
2021/12/22 08:31:48;;;;;;;47.30;23.20;;;;;;;;;;5031372;28;20108;-88
2021/12/22 08:34:22;;;;;;;38.33;24.30;;;;;;;;;;5031422;28;20047;-88
2021/12/22 08:39:31;;;;;;;40.47;24.13;;;;;;;;;;5031550;28;20051;-87
2021/12/22 08:41:56;;;;;;;39.57;23.20;;;;;;;;;;5013111;28;20041;-88
2021/12/22 08:44:22;;;;;;;37.05;22.58;;;;;;;;;;5013505;28;20283;-87
2021/12/22 08:46:49;;;;;;;41.13;24.58;;;;;;;;;;5032212;28;20123;-88
2021/12/22 08:49:15;;;;;;;36.75;21.52;;;;;;;;;;5014496;28;20541;-88
2021/12/22 08:51:40;;;;;;;39.50;23.40;;;;;;;;;;5032023;28;20044;-88
2021/12/22 08:54:06;;;;;;;34.33;20.77;;;;;;;;;;5031542;28;20024;-88
2021/12/22 08:56:32;;;;;;;35.35;21.25;;;;;;;;;;5013338;28;20168;-88
2021/12/22 08:58:58;;;;;;;36.72;21.90;;;;;;;;;;5030864;28;20034;-87
2021/12/22 09:01:23;;;;;;;41.53;24.48;;;;;;;;;;5031259;28;20014;-88
2021/12/22 09:03:49;;;;;;;33.10;21.33;;;;;;;;;;5014243;28;20025;-88
2021/12/22 09:06:14;;;;;;;41.72;24.95;;;;;;;;;;5012999;28;20461;-87
2021/12/22 09:08:40;;;;;;;34.42;21.75;;;;;;;;;;5030635;28;20053;-87
2021/12/22 09:11:05;;;;;;;35.30;21.35;;;;;;;;;;5030310;28;20033;-88
2021/12/22 09:13:30;;;;;;;36.35;22.67;;;;;;;;;;5030220;28;20408;-87
2021/12/22 09:15:56;;;;;;;32.97;21.55;;;;;;;;;;5030876;28;20092;-87
2021/12/22 09:18:21;;;;;;;40.63;23.77;;;;;;;;;;5030222;28;20025;-87
2021/12/22 09:20:46;;;;;;;37.00;21.58;;;;;;;;;;5012880;28;20549;-87
2021/12/22 09:23:12;;;;;;;42.30;22.83;;;;;;;;;;5012412;28;20095;-88
2021/12/22 09:25:37;;;;;;;40.45;24.65;;;;;;;;;;5013020;28;20436;-87
2021/12/22 09:28:02;;;;;;;38.75;24.13;;;;;;;;;;5030614;28;20029;-88
2021/12/22 09:30:35;;;;;;;35.38;23.77;;;;;;;;;;5030912;28;20099;-87
2021/12/22 09:33:00;;;;;;;45.28;23.90;;;;;;;;;;4993302;28;20084;-88
2021/12/22 09:35:27;;;;;;;43.70;25.23;;;;;;;;;;5018856;28;20013;-88
2021/12/22 09:37:52;;;;;;;34.53;22.40;;;;;;;;;;5030175;28;20021;-88
2021/12/22 09:40:18;;;;;;;37.97;22.30;;;;;;;;;;5030410;28;20463;-88
2021/12/22 09:42:43;;;;;;;40.05;22.15;;;;;;;;;;5030491;28;20128;-88
2021/12/22 09:45:08;;;;;;;49.70;28.05;;;;;;;;;;5012551;28;20029;-87
2021/12/22 09:47:49;;;;;;;35.58;23.00;;;;;;;;;;5012048;28;20104;-88
2021/12/22 09:50:24;;;;;;;41.53;24.55;;;;;;;;;;5030088;28;20045;-87
2021/12/22 09:52:49;;;;;;;37.10;23.25;;;;;;;;;;5030263;28;20026;-87
2021/12/22 09:55:14;;;;;;;36.78;22.10;;;;;;;;;;5012259;28;20108;-87
2021/12/22 09:57:40;;;;;;;36.78;23.20;;;;;;;;;;5030632;28;20029;-88
2021/12/22 10:00:06;;;;;;;42.03;22.83;;;;;;;;;;5011667;28;20021;-87
2021/12/22 10:02:32;;;;;;;33.60;21.92;;;;;;;;;;5012327;28;20104;-88
2021/12/22 10:04:57;;;;;;;33.10;20.43;;;;;;;;;;5011587;28;20137;-88
2021/12/22 10:07:27;;;;;;;31.98;20.75;;;;;;;;;;5029932;28;20260;-88
2021/12/22 10:09:54;;;;;;;35.58;20.35;;;;;;;;;;5012027;28;20076;-87
2021/12/22 10:12:20;;;;;;;34.00;21.85;;;;;;;;;;5011972;28;20025;-88
2021/12/22 10:14:50;;;;;;;35.25;21.13;;;;;;;;;;5029853;28;20120;-88
2021/12/22 10:17:35;;;;;;;33.92;20.02;;;;;;;;;;5029464;28;20036;-88
2021/12/22 10:20:02;;;;;;;33.03;21.15;;;;;;;;;;5030072;28;20014;-87
2021/12/22 10:22:29;;;;;;;33.45;19.27;;;;;;;;;;5030246;28;20018;-88
2021/12/22 10:24:59;;;;;;;34.17;20.00;;;;;;;;;;5011673;28;20473;-88
2021/12/22 10:27:26;;;;;;;34.85;19.67;;;;;;;;;;5029721;28;20017;-88
2021/12/22 10:29:51;;;;;;;36.42;20.45;;;;;;;;;;5028775;28;20018;-87
2021/12/22 10:32:16;;;;;;;33.45;20.77;;;;;;;;;;5029468;28;20074;-87
2021/12/22 10:34:59;;;;;;;35.72;21.23;;;;;;;;;;5012671;28;20116;-87
2021/12/22 10:37:33;;;;;;;34.28;20.95;;;;;;;;;;5030026;28;20465;-87
2021/12/22 10:39:59;;;;;;;34.72;21.42;;;;;;;;;;5029827;28;20045;-88
2021/12/22 10:42:38;;;;;;;33.95;20.63;;;;;;;;;;5011649;28;20030;-87
2021/12/22 10:45:10;;;;;;;31.23;19.33;;;;;;;;;;5029549;28;20439;-87
2021/12/22 10:49:14;;;;;;;34.47;21.10;;;;;;;;;;5029950;28;20032;-87
2021/12/22 10:50:30;;;;;;;34.90;20.38;;;;;;;;;;5028923;28;20038;-87
2021/12/22 10:52:57;;;;;;;38.38;18.60;;;;;;;;;;5029598;28;20029;-87
2021/12/22 10:55:22;;;;;;;32.10;18.63;;;;;;;;;;5011227;28;20021;-87
2021/12/22 10:57:47;;;;;;;31.38;17.98;;;;;;;;;;5029281;28;20493;-87
2021/12/22 11:00:18;;;;;;;31.23;18.35;;;;;;;;;;5011814;28;20560;-87
2021/12/22 11:02:50;;;;;;;27.80;17.15;;;;;;;;;;5028956;28;20028;-87
2021/12/22 11:05:15;;;;;;;;;;;;;;;;;;5029421;28;20458;-87
2021/12/22 11:07:41;;;;;;;27.92;19.30;;;;;;;;;;5029336;28;20043;-87
2021/12/22 11:10:26;;;;;;;33.20;19.02;;;;;;;;;;5011146;28;20868;-87
2021/12/22 11:13:01;;;;;;;25.70;16.75;;;;;;;;;;5029367;28;20512;-88
2021/12/22 11:15:26;;;;;;;30.25;17.15;;;;;;;;;;5010947;28;20049;-88
2021/12/22 11:17:52;;;;;;;26.05;17.52;;;;;;;;;;5011181;28;20033;-87
2021/12/22 11:20:21;;;;;;;30.27;17.97;;;;;;;;;;5028697;28;20478;-87
2021/12/22 11:22:58;;;;;;;32.08;17.88;;;;;;;;;;5029209;28;20268;-87
2021/12/22 11:25:24;;;;;;;30.40;18.05;;;;;;;;;;5028989;28;20025;-87
2021/12/22 11:27:49;;;;;;;28.27;18.88;;;;;;;;;;5028696;28;20037;-87
2021/12/22 11:30:15;;;;;;;28.90;17.27;;;;;;;;;;5028609;28;20042;-87
2021/12/22 11:32:40;;;;;;;28.63;15.88;;;;;;;;;;5029621;28;20014;-87
2021/12/22 11:35:07;;;;;;;26.83;16.77;;;;;;;;;;5011701;28;20461;-88
2021/12/22 11:37:33;;;;;;;36.35;19.02;;;;;;;;;;5011355;28;20033;-88
2021/12/22 11:39:58;;;;;;;27.33;17.50;;;;;;;;;;5011374;28;20850;-87
2021/12/22 11:42:29;;;;;;;26.95;16.38;;;;;;;;;;5014533;28;20075;-87
2021/12/22 11:44:57;;;;;;;28.77;16.83;;;;;;;;;;5013272;28;20049;-87
2021/12/22 11:47:23;;;;;;;28.95;16.88;;;;;;;;;;5020589;28;20316;-87
2021/12/22 11:49:55;;;;;;;26.73;16.88;;;;;;;;;;5032229;28;20512;-87
2021/12/22 11:52:27;;;;;;;25.38;16.65;;;;;;;;;;5014958;28;20018;-87
2021/12/22 11:55:05;;;;;;;37.88;17.17;;;;;;;;;;5014991;28;20030;-88
2021/12/22 11:57:30;;;;;;;31.35;17.80;;;;;;;;;;5015105;28;20033;-88
2021/12/22 11:59:55;;;;;;;34.50;18.83;;;;;;;;;;5014294;28;20022;-87
2021/12/22 12:02:23;;;;;;;33.17;17.98;;;;;;;;;;5032623;28;20327;-88
2021/12/22 12:04:51;;;;;;;31.42;16.58;;;;;;;;;;5033481;28;20022;-87
2021/12/22 12:07:35;;;;;;;32.85;18.40;;;;;;;;;;5015901;28;20093;-87
2021/12/22 12:10:19;;;;;;;29.83;18.30;;;;;;;;;;5095242;22;21495;-87
2021/12/22 12:12:44;;;;;;;34.33;18.35;;;;;;;;;;5033644;28;20029;-87
2021/12/22 12:15:23;;;;;;;34.00;17.95;;;;;;;;;;5028003;28;20025;-87
2021/12/22 12:23:27;;;;;;;27.92;17.80;;;;;;;;;;5026879;28;20029;-87
2021/12/22 12:25:52;;;;;;;32.60;17.85;;;;;;;;;;5012968;28;20034;-87
2021/12/22 12:28:18;;;;;;;29.05;16.92;;;;;;;;;;4995106;28;20072;-87
2021/12/22 12:30:48;;;;;;;27.10;17.38;;;;;;;;;;5015795;28;20677;-87
2021/12/22 12:33:21;;;;;;;28.67;16.35;;;;;;;;;;5033536;28;20021;-87
2021/12/22 12:35:51;;;;;;;27.70;17.25;;;;;;;;;;5015535;28;20112;-87
2021/12/22 12:38:16;;;;;;;31.45;19.08;;;;;;;;;;5033512;28;20018;-87
2021/12/22 12:40:57;;;;;;;32.08;16.95;;;;;;;;;;5015149;28;20685;-87
2021/12/22 12:43:52;;;;;;;28.15;17.23;;;;;;;;;;5013499;28;20022;-87
2021/12/22 12:46:24;;;;;;;31.00;17.52;;;;;;;;;;5010931;28;20045;-87
2021/12/22 12:48:55;;;;;;;26.23;17.02;;;;;;;;;;4995853;28;20088;-87
2021/12/22 12:51:25;;;;;;;27.17;16.00;;;;;;;;;;4995331;28;20088;-87
2021/12/22 12:53:51;;;;;;;30.88;17.08;;;;;;;;;;5023335;28;20112;-87
2021/12/22 12:56:17;;;;;;;27.42;16.98;;;;;;;;;;5033607;28;20456;-87
2021/12/22 12:58:53;;;;;;;27.52;17.30;;;;;;;;;;5015977;28;20025;-87
2021/12/22 13:01:18;;;;;;;29.13;15.80;;;;;;;;;;5026259;28;20038;-87
2021/12/22 13:03:50;;;;;;;31.00;16.45;;;;;;;;;;5012772;28;20839;-87
2021/12/22 13:06:15;;;;;;;28.40;16.50;;;;;;;;;;5013401;28;20105;-87
2021/12/22 13:08:40;;;;;;;26.83;16.60;;;;;;;;;;5011067;28;20104;-87
2021/12/22 13:11:12;;;;;;;33.20;16.95;;;;;;;;;;5010541;28;20064;-87
2021/12/22 13:15:46;;;;;;;28.98;16.73;;;;;;;;;;5012468;28;20049;-87
2021/12/22 13:16:22;;;;;;;23.60;15.18;;;;;;;;;;5012839;28;20685;-87
2021/12/22 13:18:48;;;;;;;27.37;15.47;;;;;;;;;;5015233;28;20028;-87
2021/12/22 13:21:13;;;;;;;33.42;16.92;;;;;;;;;;5031705;28;20290;-87
2021/12/22 13:23:38;;;;;;;28.90;16.45;;;;;;;;;;5031488;28;20437;-87
2021/12/22 13:26:03;;;;;;;27.85;17.40;;;;;;;;;;5031728;28;20435;-87
2021/12/22 13:28:35;;;;;;;29.58;17.98;;;;;;;;;;5012898;28;20405;-87
2021/12/22 13:31:02;;;;;;;32.78;16.60;;;;;;;;;;5013375;28;20354;-87
2021/12/22 13:33:31;;;;;;;33.63;18.45;;;;;;;;;;5032468;28;20028;-87
2021/12/22 13:35:58;;;;;;;31.50;19.45;;;;;;;;;;5015164;28;20021;-87
2021/12/22 13:38:26;;;;;;;28.75;15.77;;;;;;;;;;5014778;28;20028;-87
2021/12/22 13:41:03;;;;;;;31.70;17.35;;;;;;;;;;4997742;28;20026;-87
2021/12/22 13:43:33;;;;;;;31.42;18.13;;;;;;;;;;5023315;28;20026;-87
2021/12/22 13:46:07;;;;;;;31.63;17.30;;;;;;;;;;5023765;28;20838;-87
2021/12/22 13:48:34;;;;;;;35.65;17.17;;;;;;;;;;4997751;28;20029;-87
2021/12/22 13:51:02;;;;;;;36.53;17.88;;;;;;;;;;5026408;28;20030;-87
2021/12/22 13:53:30;;;;;;;30.77;18.05;;;;;;;;;;4994154;28;20045;-86
2021/12/22 13:55:56;;;;;;;26.75;17.00;;;;;;;;;;5011336;28;20102;-86
2021/12/22 13:58:36;;;;;;;31.67;17.25;;;;;;;;;;4992841;28;20553;-87
2021/12/22 14:01:10;;;;;;;29.80;18.05;;;;;;;;;;4992311;28;20026;-87
2021/12/22 14:03:35;;;;;;;31.60;17.50;;;;;;;;;;4992324;28;20508;-87
2021/12/22 14:06:06;;;;;;;33.47;18.63;;;;;;;;;;5024162;28;20037;-87
2021/12/22 14:08:31;;;;;;;39.28;18.63;;;;;;;;;;5030837;28;20740;-87
2021/12/22 14:10:56;;;;;;;30.85;18.80;;;;;;;;;;4993581;28;20050;-87
2021/12/22 14:13:30;;;;;;;27.13;17.60;;;;;;;;;;5011049;28;20092;-86
2021/12/22 14:15:56;;;;;;;33.15;19.25;;;;;;;;;;5023105;28;20291;-87
2021/12/22 14:18:32;;;;;;;33.33;18.60;;;;;;;;;;5031171;28;20765;-87
2021/12/22 14:20:57;;;;;;;34.53;18.58;;;;;;;;;;5030319;28;20083;-86
2021/12/22 14:23:23;;;;;;;31.13;18.48;;;;;;;;;;5030310;28;20025;-87
2021/12/22 14:25:48;;;;;;;33.85;19.55;;;;;;;;;;5030227;28;20025;-87
2021/12/22 14:28:22;;;;;;;30.98;17.85;;;;;;;;;;5007803;28;20084;-86
2021/12/22 14:30:48;;;;;;;32.33;18.42;;;;;;;;;;5029950;28;20524;-87
2021/12/22 14:33:20;;;;;;;34.50;20.25;;;;;;;;;;5012964;28;20014;-87
2021/12/22 14:35:53;;;;;;;33.75;20.05;;;;;;;;;;5013199;28;20029;-87